Time;durP1;ratioP1;P1;durP2;ratioP2;P2;SDS_P1;SDS_P2;PMS_P1;PMS_P2;Temp;Humidity;BMP_temperature;BMP_pressure;BME280_temperature;BME280_humidity;BME280_pressure;Samples;Min_cycle;Max_cycle;Signal;HPM_P1;HPM_P2
2021/05/30 00:01:59;;;;;;;8.25;3.47;;;384.40;2329.60;;;;;;5093325;28;20131;-80
2021/05/30 00:04:24;;;;;;;8.07;3.80;;;384.20;2329.60;;;;;;5094014;28;20051;-80
2021/05/30 00:06:50;;;;;;;4.32;3.15;;;384.20;2329.60;;;;;;5093105;28;20076;-80
2021/05/30 00:09:16;;;;;;;5.97;3.72;;;384.20;2329.60;;;;;;5093010;28;20077;-80
2021/05/30 00:11:42;;;;;;;4.30;3.63;;;384.20;2329.60;;;;;;5092287;28;20506;-80
2021/05/30 00:14:08;;;;;;;7.65;4.18;;;384.20;2329.60;;;;;;5093839;28;20032;-80
2021/05/30 00:16:34;;;;;;;9.35;3.72;;;384.10;2329.60;;;;;;5079055;28;20048;-80
2021/05/30 00:19:02;;;;;;;4.50;3.20;;;384.10;2329.60;;;;;;5092005;28;20403;-80
2021/05/30 00:21:28;;;;;;;4.38;3.35;;;384.00;2329.60;;;;;;5092070;28;20051;-80
2021/05/30 00:23:53;;;;;;;4.97;4.07;;;384.00;2329.60;;;;;;5093419;28;20038;-80
2021/05/30 00:26:19;;;;;;;4.03;3.05;;;384.00;2329.60;;;;;;5093578;28;20032;-80
2021/05/30 00:28:45;;;;;;;5.32;3.80;;;384.00;2329.60;;;;;;5083100;28;20032;-80
2021/05/30 00:31:11;;;;;;;4.00;3.00;;;384.10;2329.60;;;;;;5086433;28;20032;-80
2021/05/30 00:33:37;;;;;;;4.05;2.90;;;384.00;2329.60;;;;;;5085338;28;20435;-80
2021/05/30 00:36:03;;;;;;;4.38;3.33;;;384.10;2329.60;;;;;;5085130;28;20035;-80
2021/05/30 00:38:29;;;;;;;8.88;3.97;;;384.00;2329.60;;;;;;5072415;28;20494;-80
2021/05/30 00:40:55;;;;;;;4.28;3.40;;;384.00;2329.60;;;;;;5083050;28;20020;-80
2021/05/30 00:43:21;;;;;;;5.78;3.45;;;384.00;2329.60;;;;;;5091987;28;20046;-80
2021/05/30 00:45:48;;;;;;;4.70;3.70;;;384.00;2329.60;;;;;;5093394;28;20092;-80
2021/05/30 00:48:15;;;;;;;4.78;3.88;;;359.30;2329.60;;;;;;5076836;28;20020;-80
2021/05/30 00:50:40;;;;;;;5.93;4.18;;;359.20;2329.60;;;;;;5071469;28;20078;-79
2021/05/30 00:53:06;;;;;;;4.63;3.50;;;359.30;2329.60;;;;;;5085320;28;20028;-80
2021/05/30 00:55:33;;;;;;;5.80;3.58;;;359.30;2329.60;;;;;;5077140;28;20024;-80
2021/05/30 00:57:58;;;;;;;4.75;3.78;;;359.30;2329.60;;;;;;5082055;28;20024;-80
2021/05/30 01:00:25;;;;;;;4.43;3.60;;;359.20;2329.60;;;;;;5074793;28;20358;-80
2021/05/30 01:02:51;;;;;;;5.53;4.10;;;359.20;2329.60;;;;;;5092509;28;20024;-80
2021/05/30 01:05:17;;;;;;;5.05;3.70;;;359.20;2329.60;;;;;;5092373;28;20016;-79
2021/05/30 01:07:45;;;;;;;5.00;4.07;;;359.20;2329.60;;;;;;5092332;28;20078;-80
2021/05/30 01:10:25;;;;;;;6.03;3.60;;;359.20;2329.60;;;;;;5092836;28;20442;-79
2021/05/30 01:12:52;;;;;;;6.68;3.78;;;359.20;2329.60;;;;;;5087711;28;20539;-80
2021/05/30 01:15:19;;;;;;;4.60;3.67;;;359.10;2329.60;;;;;;5080346;28;20480;-80
2021/05/30 01:17:47;;;;;;;4.88;3.83;;;359.10;2329.60;;;;;;5091878;28;20028;-80
2021/05/30 01:20:17;;;;;;;5.20;4.05;;;359.10;2329.60;;;;;;5092466;28;20099;-80
2021/05/30 01:22:45;;;;;;;5.85;3.88;;;359.10;2329.60;;;;;;5090401;28;20026;-80
2021/05/30 01:25:13;;;;;;;6.93;4.38;;;359.10;2329.60;;;;;;5090288;28;20491;-79
2021/05/30 01:27:39;;;;;;;5.22;3.42;;;359.10;2329.60;;;;;;5092337;28;20136;-80
2021/05/30 01:30:07;;;;;;;6.43;4.53;;;359.00;2329.60;;;;;;5091518;28;20403;-79
2021/05/30 01:32:33;;;;;;;10.35;4.60;;;359.00;2329.60;;;;;;5090864;28;20035;-79
2021/05/30 01:35:00;;;;;;;6.88;4.90;;;359.00;2329.60;;;;;;5091547;28;20031;-79
2021/05/30 01:37:26;;;;;;;7.82;5.05;;;359.00;2329.60;;;;;;5090835;28;20028;-80
2021/05/30 01:39:52;;;;;;;10.85;6.18;;;359.00;2329.60;;;;;;5090596;28;20024;-79
2021/05/30 01:42:17;;;;;;;9.20;5.05;;;359.00;2329.60;;;;;;5092012;28;20024;-80
2021/05/30 01:44:43;;;;;;;8.68;5.07;;;359.00;2329.60;;;;;;5091370;28;20020;-80
2021/05/30 01:47:09;;;;;;;7.40;5.78;;;359.00;2329.60;;;;;;5090223;28;20499;-80
2021/05/30 01:49:36;;;;;;;7.70;4.78;;;359.00;2329.60;;;;;;5091928;28;20020;-80
2021/05/30 01:52:03;;;;;;;6.35;5.07;;;359.00;2329.60;;;;;;5090111;28;20027;-80
2021/05/30 01:54:29;;;;;;;8.30;4.60;;;359.00;2329.60;;;;;;5090468;28;20024;-80
2021/05/30 01:56:57;;;;;;;6.18;4.57;;;359.00;2329.60;;;;;;5090878;28;20028;-80
2021/05/30 01:59:28;;;;;;;8.23;4.78;;;359.00;2329.60;;;;;;5091216;28;20483;-80
2021/05/30 02:01:57;;;;;;;5.85;4.25;;;358.90;2329.60;;;;;;5090065;28;20361;-80
2021/05/30 02:04:29;;;;;;;5.63;4.30;;;358.90;2329.60;;;;;;5091272;28;20020;-80
2021/05/30 02:06:55;;;;;;;6.32;4.97;;;358.90;2329.60;;;;;;5091600;28;20166;-80
2021/05/30 02:09:21;;;;;;;5.85;4.50;;;358.90;2329.60;;;;;;5089703;28;20028;-80
2021/05/30 02:11:47;;;;;;;5.80;4.45;;;358.90;2329.60;;;;;;5091455;28;20388;-80
2021/05/30 02:14:14;;;;;;;9.32;4.63;;;358.90;2329.60;;;;;;5089875;28;20031;-80
2021/05/30 02:16:42;;;;;;;5.88;4.72;;;358.90;2329.60;;;;;;5090199;28;20024;-80
2021/05/30 02:19:08;;;;;;;8.77;5.32;;;358.90;2329.60;;;;;;5089700;28;20391;-80
2021/05/30 02:21:47;;;;;;;8.90;5.18;;;358.90;2329.60;;;;;;5090734;28;20027;-80
2021/05/30 02:24:15;;;;;;;7.22;5.20;;;358.90;2329.60;;;;;;5078160;28;20086;-80
2021/05/30 02:26:41;;;;;;;8.50;5.47;;;359.00;2329.60;;;;;;5074060;28;20028;-80
2021/05/30 02:29:08;;;;;;;6.68;4.72;;;358.90;2329.60;;;;;;5079976;28;20028;-80
2021/05/30 02:31:34;;;;;;;6.20;4.95;;;358.90;2329.60;;;;;;5084251;28;20029;-80
2021/05/30 02:34:00;;;;;;;8.70;5.43;;;359.00;2329.60;;;;;;5070851;28;20078;-80
2021/05/30 02:36:27;;;;;;;10.20;7.32;;;359.00;2329.60;;;;;;5084456;28;20042;-80
2021/05/30 02:38:54;;;;;;;11.32;8.05;;;359.00;2329.60;;;;;;5081968;28;20029;-79
2021/05/30 02:41:20;;;;;;;11.75;9.13;;;359.00;2329.60;;;;;;5083732;28;20046;-80
2021/05/30 02:43:48;;;;;;;10.57;8.40;;;358.90;2329.60;;;;;;5089699;28;20028;-80
2021/05/30 02:46:14;;;;;;;9.32;7.57;;;359.00;2329.60;;;;;;5077165;28;20079;-79
2021/05/30 02:48:40;;;;;;;9.07;7.05;;;359.00;2329.60;;;;;;5088394;28;20020;-79
2021/05/30 02:51:05;;;;;;;8.02;5.63;;;359.00;2329.60;;;;;;5079493;28;20078;-80
2021/05/30 02:53:33;;;;;;;6.53;5.32;;;359.00;2329.60;;;;;;5070679;28;20396;-80
2021/05/30 02:56:02;;;;;;;7.03;4.85;;;358.90;2329.60;;;;;;5089299;28;20028;-80
2021/05/30 02:58:31;;;;;;;9.02;5.03;;;358.90;2329.60;;;;;;5085614;28;20028;-79
2021/05/30 03:00:57;;;;;;;7.43;5.60;;;358.90;2329.60;;;;;;5070436;28;20025;-80
2021/05/30 03:03:23;;;;;;;6.18;5.03;;;358.90;2329.60;;;;;;5084725;28;20077;-79
2021/05/30 03:05:49;;;;;;;8.13;5.10;;;358.90;2329.60;;;;;;5080413;28;20170;-79
2021/05/30 03:08:16;;;;;;;6.97;6.00;;;359.00;2329.60;;;;;;5077207;28;20100;-80
2021/05/30 03:10:42;;;;;;;10.73;6.55;;;358.90;2329.60;;;;;;5076752;28;20029;-80
2021/05/30 03:13:08;;;;;;;9.10;6.55;;;358.90;2329.60;;;;;;5069257;28;20374;-79
2021/05/30 03:15:34;;;;;;;12.32;9.15;;;358.90;2329.60;;;;;;5081445;28;20063;-80
2021/05/30 03:18:00;;;;;;;15.80;10.30;;;359.00;2329.60;;;;;;5088156;28;20036;-80
2021/05/30 03:20:25;;;;;;;14.52;10.63;;;359.00;2329.60;;;;;;5088075;28;20044;-79
2021/05/30 03:22:51;;;;;;;8.55;7.35;;;358.90;2329.60;;;;;;5075122;28;20041;-80
2021/05/30 03:25:17;;;;;;;9.18;7.10;;;358.90;2329.60;;;;;;5080746;28;20023;-79
2021/05/30 03:27:43;;;;;;;7.10;5.10;;;358.90;2329.60;;;;;;5070453;28;20028;-79
2021/05/30 03:30:10;;;;;;;6.32;5.05;;;359.00;2329.60;;;;;;5087950;28;20024;-79
2021/05/30 03:32:36;;;;;;;7.28;5.03;;;358.90;2329.60;;;;;;5089173;28;20032;-80
2021/05/30 03:35:03;;;;;;;5.60;4.57;;;358.90;2329.60;;;;;;5088249;28;20365;-79
2021/05/30 03:37:28;;;;;;;7.38;4.97;;;358.90;2329.60;;;;;;5089669;28;20032;-79
2021/05/30 03:39:58;;;;;;;7.93;6.03;;;359.00;2329.60;;;;;;5088787;28;20039;-79
2021/05/30 03:42:28;;;;;;;9.73;6.82;;;359.10;2329.60;;;;;;5088680;28;20481;-80
2021/05/30 03:44:57;;;;;;;11.30;7.68;;;359.20;2329.60;;;;;;5088569;28;20028;-79
2021/05/30 03:47:23;;;;;;;11.85;6.65;;;359.20;2329.60;;;;;;5081891;28;20020;-80
2021/05/30 03:49:49;;;;;;;10.60;6.50;;;359.30;2329.60;;;;;;5070177;28;20046;-79
2021/05/30 03:52:15;;;;;;;9.43;6.25;;;359.30;2329.60;;;;;;5073625;28;20445;-79
2021/05/30 03:54:41;;;;;;;6.05;4.50;;;384.00;2329.60;;;;;;5088442;28;20032;-84
2021/05/30 03:57:07;;;;;;;6.60;4.78;;;384.00;2329.60;;;;;;5089704;28;20074;-79
2021/05/30 03:59:33;;;;;;;6.63;4.75;;;384.00;2329.60;;;;;;5095105;28;20497;-79
2021/05/30 04:01:59;;;;;;;6.13;4.78;;;384.00;2329.60;;;;;;5085071;28;20058;-79
2021/05/30 04:04:24;;;;;;;7.90;4.68;;;384.20;2329.60;;;;;;5089567;28;20506;-79
2021/05/30 04:06:50;;;;;;;9.07;4.85;;;384.20;2329.60;;;;;;5087973;28;20443;-80
2021/05/30 04:09:16;;;;;;;8.13;4.82;;;384.20;2329.60;;;;;;5089478;28;20389;-80
2021/05/30 04:11:42;;;;;;;6.15;4.03;;;384.20;2329.60;;;;;;5089670;28;20024;-80
2021/05/30 04:14:07;;;;;;;7.38;4.85;;;384.40;2329.60;;;;;;5089529;28;20020;-80
2021/05/30 04:16:33;;;;;;;5.65;3.78;;;384.30;2329.60;;;;;;5075659;28;20020;-79
2021/05/30 04:18:59;;;;;;;7.65;4.75;;;384.30;2329.60;;;;;;5093287;28;20024;-79
2021/05/30 04:21:25;;;;;;;6.93;4.72;;;384.40;2329.60;;;;;;5089776;28;20515;-79
2021/05/30 04:23:51;;;;;;;6.28;4.22;;;384.40;2329.60;;;;;;5072716;28;20016;-80
2021/05/30 04:26:17;;;;;;;5.85;4.28;;;384.40;2329.60;;;;;;5087268;28;20024;-79
2021/05/30 04:28:44;;;;;;;5.93;3.92;;;384.40;2329.60;;;;;;5085668;28;20488;-80
2021/05/30 04:31:10;;;;;;;5.43;3.97;;;384.50;2329.60;;;;;;5091573;28;20388;-79
2021/05/30 04:33:36;;;;;;;6.65;4.53;;;384.70;2329.60;;;;;;5072987;28;20020;-80
2021/05/30 04:36:02;;;;;;;6.93;4.60;;;384.90;2329.60;;;;;;5072032;28;20036;-80
2021/05/30 04:38:28;;;;;;;9.35;4.60;;;409.60;2355.20;;;;;;5081067;28;20028;-80
2021/05/30 04:40:54;;;;;;;5.10;3.70;;;409.60;2355.20;;;;;;5082258;28;20024;-80
2021/05/30 04:43:20;;;;;;;6.47;3.75;;;409.80;2304.00;;;;;;5084261;28;20032;-80
2021/05/30 04:45:45;;;;;;;5.95;3.78;;;410.20;2278.40;;;;;;5084391;28;20024;-79
2021/05/30 04:48:11;;;;;;;5.82;3.20;;;410.50;2227.20;;;;;;5102632;28;20488;-79
2021/05/30 04:50:38;;;;;;;6.82;3.80;;;410.30;2252.80;;;;;;5090993;28;20464;-80
2021/05/30 04:53:04;;;;;;;5.07;3.83;;;410.40;2227.20;;;;;;5090395;28;20024;-80
2021/05/30 04:55:30;;;;;;;4.72;3.60;;;410.40;2252.80;;;;;;5072429;28;20083;-80
2021/05/30 04:57:55;;;;;;;4.78;3.38;;;410.30;2252.80;;;;;;5081545;28;20030;-80
2021/05/30 05:00:21;;;;;;;4.53;3.58;;;410.50;2227.20;;;;;;5079383;28;20024;-80
2021/05/30 05:02:47;;;;;;;5.45;3.47;;;435.20;2201.60;;;;;;5090967;28;20480;-80
2021/05/30 05:05:13;;;;;;;4.00;3.33;;;435.40;2201.60;;;;;;5089413;28;20016;-80
2021/05/30 05:07:41;;;;;;;6.03;4.40;;;435.20;2201.60;;;;;;5077167;28;20078;-79
2021/05/30 05:10:08;;;;;;;5.55;4.40;;;435.40;2176.00;;;;;;5084051;28;20029;-80
2021/05/30 05:12:35;;;;;;;5.13;4.13;;;435.50;2176.00;;;;;;5085831;28;20028;-79
2021/05/30 05:15:01;;;;;;;7.95;4.68;;;435.80;2150.40;;;;;;5090641;28;20032;-79
2021/05/30 05:17:27;;;;;;;7.00;4.68;;;436.00;2124.80;;;;;;5091738;28;20031;-80
2021/05/30 05:19:53;;;;;;;7.05;4.53;;;436.00;2124.80;;;;;;5090227;28;20431;-80
2021/05/30 05:22:19;;;;;;;7.25;3.83;;;436.10;2124.80;;;;;;5092291;28;20074;-80
2021/05/30 05:24:44;;;;;;;4.53;3.25;;;436.10;2150.40;;;;;;5087178;28;20025;-80
2021/05/30 05:27:10;;;;;;;7.20;4.38;;;460.80;2150.40;;;;;;5080933;28;20020;-80
2021/05/30 05:29:37;;;;;;;5.22;2.70;;;460.90;2150.40;;;;;;5091802;28;20476;-80
2021/05/30 05:32:03;;;;;;;4.47;3.17;;;461.10;2150.40;;;;;;5090504;28;20073;-81
2021/05/30 05:34:29;;;;;;;5.25;3.08;;;461.20;2124.80;;;;;;5077099;28;20036;-80
2021/05/30 05:36:54;;;;;;;5.10;3.03;;;461.30;2124.80;;;;;;5075694;28;20036;-80
2021/05/30 05:39:20;;;;;;;3.95;2.80;;;461.40;2099.20;;;;;;5078397;28;20029;-80
2021/05/30 05:41:49;;;;;;;4.95;2.90;;;461.60;2073.60;;;;;;5073042;28;20021;-80
2021/05/30 05:44:15;;;;;;;4.63;3.65;;;461.70;2073.60;;;;;;5091673;28;20058;-80
2021/05/30 05:46:41;;;;;;;5.72;3.10;;;486.40;2073.60;;;;;;5075885;28;20028;-80
2021/05/30 05:49:06;;;;;;;4.78;3.60;;;486.70;2048.00;;;;;;5091601;28;20031;-80
2021/05/30 05:51:32;;;;;;;7.43;3.40;;;486.60;2048.00;;;;;;5090360;28;20395;-80
2021/05/30 05:53:58;;;;;;;4.40;3.25;;;486.60;2022.40;;;;;;5090446;28;20496;-80
2021/05/30 05:56:23;;;;;;;4.35;3.08;;;486.80;1996.80;;;;;;5090118;28;20035;-80
2021/05/30 05:58:50;;;;;;;4.72;3.30;;;487.10;1945.60;;;;;;5090076;28;20083;-80
2021/05/30 06:01:16;;;;;;;4.25;3.05;;;487.30;1920.00;;;;;;5079896;28;20029;-80
2021/05/30 06:03:41;;;;;;;4.47;2.90;;;487.30;1920.00;;;;;;5072667;28;20110;-80
2021/05/30 06:06:07;;;;;;;5.60;3.28;;;512.10;1894.40;;;;;;5089512;28;20119;-80
2021/05/30 06:08:33;;;;;;;3.25;2.67;;;512.10;1868.80;;;;;;5080428;28;20033;-80
2021/05/30 06:10:59;;;;;;;5.20;3.10;;;512.10;1843.20;;;;;;5086635;28;20443;-80
2021/05/30 06:13:24;;;;;;;4.22;2.60;;;512.20;1843.20;;;;;;5082183;28;20031;-80
2021/05/30 06:15:50;;;;;;;4.10;2.85;;;512.40;1766.40;;;;;;5083353;28;20434;-80
2021/05/30 06:18:17;;;;;;;4.32;2.65;;;512.90;1792.00;;;;;;5089493;28;20028;-80
2021/05/30 06:20:45;;;;;;;3.72;2.15;;;512.70;1766.40;;;;;;5077974;28;20025;-80
2021/05/30 06:23:12;;;;;;;4.13;2.50;;;537.80;1740.80;;;;;;5073871;28;20018;-80
2021/05/30 06:25:40;;;;;;;3.00;2.42;;;512.90;1766.40;;;;;;5091015;28;20016;-80
2021/05/30 06:28:06;;;;;;;3.85;2.22;;;512.40;1766.40;;;;;;5089582;28;20028;-81
2021/05/30 06:30:35;;;;;;;3.58;2.33;;;512.40;1766.40;;;;;;5089897;28;20028;-80
2021/05/30 06:33:01;;;;;;;4.38;2.50;;;512.40;1740.80;;;;;;5089472;28;20082;-81
2021/05/30 06:35:29;;;;;;;3.20;2.25;;;512.90;1715.20;;;;;;5083218;28;20024;-81
2021/05/30 06:37:55;;;;;;;2.70;2.20;;;537.70;1740.80;;;;;;5084162;28;20074;-80
2021/05/30 06:40:21;;;;;;;3.60;2.78;;;512.70;1740.80;;;;;;5074268;28;20074;-80
2021/05/30 06:42:47;;;;;;;3.92;2.72;;;538.00;1740.80;;;;;;5089493;28;20028;-80
2021/05/30 06:45:13;;;;;;;6.05;3.10;;;538.30;1715.20;;;;;;5072428;28;20009;-80
2021/05/30 06:47:39;;;;;;;3.08;2.33;;;538.30;1689.60;;;;;;5070277;28;20016;-80
2021/05/30 06:50:06;;;;;;;4.30;2.70;;;538.40;1664.00;;;;;;5082664;28;20077;-80
2021/05/30 06:52:31;;;;;;;3.65;2.38;;;563.20;1689.60;;;;;;5077767;28;20020;-80
2021/05/30 06:54:57;;;;;;;3.80;2.47;;;563.60;1638.40;;;;;;5089032;28;20429;-80
2021/05/30 06:57:23;;;;;;;6.38;2.63;;;564.00;1612.80;;;;;;5083059;28;20530;-80
2021/05/30 06:59:49;;;;;;;3.08;2.70;;;588.80;1612.80;;;;;;5084248;28;20468;-80
2021/05/30 07:02:16;;;;;;;3.63;2.63;;;564.00;1638.40;;;;;;5090236;28;20021;-80
2021/05/30 07:04:42;;;;;;;4.43;2.25;;;563.80;1638.40;;;;;;5090396;28;20028;-80
2021/05/30 07:07:08;;;;;;;4.78;2.50;;;563.90;1612.80;;;;;;5088535;28;20123;-80
2021/05/30 07:09:35;;;;;;;3.08;2.10;;;564.00;1612.80;;;;;;5078182;28;20146;-81
2021/05/30 07:12:01;;;;;;;5.75;3.10;;;589.10;1536.00;;;;;;5069968;28;20021;-80
2021/05/30 07:14:27;;;;;;;5.07;2.65;;;589.10;1561.60;;;;;;5068744;28;20042;-80
2021/05/30 07:16:55;;;;;;;3.53;2.47;;;563.70;1587.20;;;;;;5070592;28;20032;-80
2021/05/30 07:19:21;;;;;;;6.38;3.28;;;538.30;1612.80;;;;;;5089053;28;20077;-80
2021/05/30 07:21:47;;;;;;;4.78;2.08;;;538.10;1638.40;;;;;;5088765;28;20024;-80
2021/05/30 07:24:12;;;;;;;3.67;2.55;;;563.20;1638.40;;;;;;5088877;28;20427;-80
2021/05/30 07:26:40;;;;;;;3.53;2.40;;;563.40;1638.40;;;;;;5090154;28;20032;-80
2021/05/30 07:29:06;;;;;;;3.95;2.40;;;563.50;1638.40;;;;;;5073827;28;20050;-80
2021/05/30 07:31:32;;;;;;;6.50;2.65;;;563.70;1561.60;;;;;;5088897;28;20077;-80
2021/05/30 07:33:58;;;;;;;4.50;2.90;;;563.60;1561.60;;;;;;5088464;28;20490;-80
2021/05/30 07:36:24;;;;;;;2.60;2.05;;;563.90;1536.00;;;;;;5081257;28;20035;-80
2021/05/30 07:38:51;;;;;;;3.40;2.20;;;588.90;1484.80;;;;;;5083278;28;20036;-80
2021/05/30 07:41:17;;;;;;;3.03;1.88;;;589.30;1459.20;;;;;;5089885;28;20400;-81
2021/05/30 07:43:43;;;;;;;3.63;2.35;;;589.40;1433.60;;;;;;5088192;28;20057;-81
2021/05/30 07:46:08;;;;;;;7.60;2.60;;;589.70;1433.60;;;;;;5089785;28;20444;-80
2021/05/30 07:48:34;;;;;;;2.30;1.77;;;589.30;1459.20;;;;;;5090209;28;20481;-81
2021/05/30 07:51:00;;;;;;;2.78;1.92;;;589.50;1408.00;;;;;;5074917;28;20385;-80
2021/05/30 07:53:25;;;;;;;3.33;2.30;;;589.70;1408.00;;;;;;5092955;28;20511;-80
2021/05/30 07:55:51;;;;;;;4.15;2.55;;;614.80;1382.40;;;;;;5092567;28;20032;-80
2021/05/30 07:58:17;;;;;;;6.50;2.65;;;614.90;1382.40;;;;;;5086128;28;20021;-80
2021/05/30 08:00:43;;;;;;;2.83;2.20;;;614.90;1382.40;;;;;;5086002;28;20482;-81
2021/05/30 08:03:08;;;;;;;3.38;2.10;;;615.20;1356.80;;;;;;5073775;28;20111;-80
2021/05/30 08:05:34;;;;;;;3.22;2.17;;;640.00;1356.80;;;;;;5071997;28;20024;-82
2021/05/30 08:08:00;;;;;;;3.70;2.30;;;640.00;1331.20;;;;;;5079447;28;20040;-81
2021/05/30 08:10:28;;;;;;;2.92;2.30;;;640.20;1331.20;;;;;;5093604;28;20023;-81
2021/05/30 08:12:54;;;;;;;3.20;2.30;;;640.50;1280.00;;;;;;5090464;28;20484;-81
2021/05/30 08:15:20;;;;;;;3.13;2.10;;;640.70;1280.00;;;;;;5082837;28;20028;-81
2021/05/30 08:17:46;;;;;;;4.03;2.88;;;665.80;1254.40;;;;;;5091071;28;20039;-81
2021/05/30 08:20:13;;;;;;;4.00;2.45;;;666.30;1228.80;;;;;;5092309;28;20020;-81
2021/05/30 08:22:39;;;;;;;3.22;2.00;;;691.40;1203.20;;;;;;5092304;28;20129;-81
2021/05/30 08:25:06;;;;;;;3.30;2.10;;;691.70;1177.60;;;;;;5072506;28;20020;-81
2021/05/30 08:27:32;;;;;;;2.95;1.90;;;691.20;1203.20;;;;;;5072315;28;20108;-81
2021/05/30 08:29:58;;;;;;;2.55;1.77;;;640.80;1228.80;;;;;;5073462;28;20473;-81
2021/05/30 08:32:24;;;;;;;3.00;2.38;;;640.40;1254.40;;;;;;5081992;28;20020;-80
2021/05/30 08:34:49;;;;;;;2.60;1.73;;;640.50;1254.40;;;;;;5091931;28;20032;-81
2021/05/30 08:37:18;;;;;;;3.63;2.08;;;640.60;1228.80;;;;;;5080538;28;20527;-81
2021/05/30 08:39:45;;;;;;;2.50;1.90;;;665.70;1228.80;;;;;;5093529;28;20028;-81
2021/05/30 08:42:11;;;;;;;4.47;2.25;;;666.20;1203.20;;;;;;5093930;28;20035;-81
2021/05/30 08:44:37;;;;;;;3.45;2.47;;;665.90;1203.20;;;;;;5091833;28;20472;-81
2021/05/30 08:47:03;;;;;;;3.00;2.10;;;666.10;1203.20;;;;;;5073293;28;20020;-81
2021/05/30 08:49:29;;;;;;;3.55;2.33;;;691.20;1203.20;;;;;;5083466;28;20097;-81
2021/05/30 08:51:55;;;;;;;2.83;2.10;;;691.40;1152.00;;;;;;5088991;28;20040;-81
2021/05/30 08:54:21;;;;;;;3.58;2.15;;;665.90;1177.60;;;;;;5080276;28;20450;-81
2021/05/30 08:56:48;;;;;;;2.92;1.98;;;640.50;1203.20;;;;;;5078835;28;20043;-81
2021/05/30 08:59:30;;;;;;;3.10;2.13;;;614.80;1280.00;;;;;;5084507;28;20457;-80
2021/05/30 09:01:58;;;;;;;3.20;2.25;;;614.90;1280.00;;;;;;5087184;28;20020;-80
2021/05/30 09:04:56;;;;;;;2.85;2.03;;;589.70;1280.00;;;;;;5092061;28;20102;-80
2021/05/30 09:07:40;;;;;;;3.10;2.05;;;589.20;1331.20;;;;;;5076606;28;20044;-80
2021/05/30 09:10:09;;;;;;;3.22;1.90;;;589.20;1356.80;;;;;;5082894;28;20029;-80
2021/05/30 09:12:39;;;;;;;5.85;2.20;;;614.40;1331.20;;;;;;5073075;28;20013;-80
2021/05/30 09:15:14;;;;;;;4.63;2.35;;;615.10;1254.40;;;;;;5092160;28;20162;-80
2021/05/30 09:17:39;;;;;;;4.03;2.47;;;640.20;1228.80;;;;;;5091047;28;20388;-81
2021/05/30 09:20:07;;;;;;;2.90;1.85;;;640.80;1177.60;;;;;;5092350;28;20027;-81
2021/05/30 09:22:34;;;;;;;3.83;2.17;;;665.90;1177.60;;;;;;5090913;28;20032;-80
2021/05/30 09:25:20;;;;;;;3.25;2.13;;;640.80;1152.00;;;;;;5092334;28;20217;-80
2021/05/30 09:27:53;;;;;;;5.25;2.47;;;640.80;1177.60;;;;;;5092124;28;20494;-81
2021/05/30 09:30:25;;;;;;;2.83;1.95;;;640.60;1177.60;;;;;;5084884;28;20031;-81
2021/05/30 09:33:00;;;;;;;3.25;1.92;;;640.40;1177.60;;;;;;5071856;28;20070;-81
2021/05/30 09:35:45;;;;;;;2.72;1.80;;;640.10;1177.60;;;;;;5078181;28;20024;-80
2021/05/30 09:38:15;;;;;;;3.55;2.30;;;665.70;1152.00;;;;;;5075742;28;20036;-81
2021/05/30 09:40:55;;;;;;;2.72;1.88;;;666.20;1152.00;;;;;;5092181;28;20028;-82
2021/05/30 09:43:23;;;;;;;5.32;2.45;;;691.50;1126.40;;;;;;5076201;28;20396;-81
2021/05/30 09:46:00;;;;;;;3.53;1.98;;;691.90;1049.60;;;;;;5090596;28;20043;-81
2021/05/30 09:48:26;;;;;;;4.25;1.70;;;692.00;1049.60;;;;;;5090768;28;20035;-81
2021/05/30 09:51:06;;;;;;;2.28;1.67;;;691.80;1024.00;;;;;;5091721;28;20024;-81
2021/05/30 09:53:34;;;;;;;2.13;1.80;;;692.10;998.40;;;;;;5090494;28;20036;-82
2021/05/30 09:56:01;;;;;;;4.05;2.80;;;717.00;998.40;;;;;;5089787;28;20051;-80
2021/05/30 09:58:26;;;;;;;3.15;1.75;;;717.00;1024.00;;;;;;5090206;28;20480;-80
2021/05/30 10:00:52;;;;;;;3.22;2.25;;;666.40;1049.60;;;;;;5090415;28;20041;-81
2021/05/30 10:03:19;;;;;;;2.90;1.88;;;666.50;1049.60;;;;;;5089910;28;20032;-80
2021/05/30 10:05:45;;;;;;;3.80;2.13;;;640.60;1075.20;;;;;;5077112;28;20476;-80
2021/05/30 10:08:12;;;;;;;2.50;1.70;;;640.20;1100.80;;;;;;5085856;28;20032;-80
2021/05/30 10:10:37;;;;;;;2.03;1.60;;;614.80;1152.00;;;;;;5084293;28;20028;-80
2021/05/30 10:13:04;;;;;;;2.40;1.73;;;615.00;1152.00;;;;;;5090427;28;20519;-80
2021/05/30 10:15:30;;;;;;;5.20;2.65;;;615.20;1152.00;;;;;;5082911;28;20031;-81
2021/05/30 10:18:01;;;;;;;2.67;1.98;;;614.90;1177.60;;;;;;5078337;28;20575;-79
2021/05/30 10:20:28;;;;;;;2.30;1.55;;;640.20;1152.00;;;;;;5088402;28;20491;-79
2021/05/30 10:22:57;;;;;;;3.90;1.95;;;640.40;1126.40;;;;;;5073520;28;20067;-79
2021/05/30 10:25:34;;;;;;;2.13;1.45;;;640.00;1126.40;;;;;;5077172;28;20024;-80
2021/05/30 10:28:20;;;;;;;2.75;1.83;;;615.00;1152.00;;;;;;5089241;28;20040;-81
2021/05/30 10:30:49;;;;;;;4.77;2.30;;;614.40;1228.80;;;;;;5089770;28;20027;-80
2021/05/30 10:33:19;;;;;;;4.05;1.98;;;589.30;1305.60;;;;;;5075466;28;20598;-81
2021/05/30 10:35:47;;;;;;;2.40;1.65;;;588.80;1305.60;;;;;;5081231;28;20350;-80
2021/05/30 10:38:33;;;;;;;3.70;1.88;;;564.00;1305.60;;;;;;5083094;28;20028;-81
2021/05/30 10:41:16;;;;;;;2.85;1.90;;;563.90;1331.20;;;;;;5075138;28;20040;-81
2021/05/30 10:43:44;;;;;;;3.35;2.10;;;563.70;1331.20;;;;;;5082642;28;20445;-81
2021/05/30 10:46:10;;;;;;;2.75;2.03;;;564.00;1331.20;;;;;;5081137;28;20024;-81
2021/05/30 10:48:38;;;;;;;2.72;1.90;;;564.10;1305.60;;;;;;5082365;28;20541;-80
2021/05/30 10:53:43;;;;;;;3.50;1.52;;;564.10;1305.60;;;;;;5090218;28;20032;-79
2021/05/30 10:56:15;;;;;;;;;;;614.50;1228.80;;;;;;5083339;28;20532;-80
2021/05/30 10:58:43;;;;;;;3.17;1.73;;;640.20;1177.60;;;;;;5087801;28;19918;-80
2021/05/30 11:01:41;;;;;;;1.92;1.50;;;665.90;1100.80;;;;;;5085968;28;20810;-80
2021/05/30 11:04:34;;;;;;;2.58;1.65;;;691.40;1049.60;;;;;;5087487;28;20046;-80
2021/05/30 11:07:07;;;;;;;2.78;1.58;;;717.50;998.40;;;;;;5087368;28;20044;-82
2021/05/30 11:09:48;;;;;;;2.63;1.83;;;768.00;972.80;;;;;;5083840;28;20020;-80
2021/05/30 11:12:21;;;;;;;2.97;1.70;;;768.20;921.60;;;;;;5080748;28;20369;-81
2021/05/30 11:15:13;;;;;;;4.53;2.85;;;768.50;921.60;;;;;;5088838;28;20024;-80
2021/05/30 11:17:40;;;;;;;2.88;1.55;;;768.10;921.60;;;;;;5075997;28;20024;-81
2021/05/30 11:20:08;;;;;;;2.50;2.15;;;743.00;947.20;;;;;;5082366;28;20029;-80
2021/05/30 11:22:56;;;;;;;3.70;1.60;;;743.20;947.20;;;;;;5075534;28;20027;-82
2021/05/30 11:25:43;;;;;;;1.92;1.40;;;717.70;998.40;;;;;;5082621;28;20124;-80
2021/05/30 11:28:11;;;;;;;2.55;1.70;;;691.70;1024.00;;;;;;5075942;28;20052;-80
2021/05/30 11:30:58;;;;;;;3.17;1.88;;;691.80;998.40;;;;;;5092397;28;20072;-80
2021/05/30 11:33:25;;;;;;;3.10;1.65;;;691.50;1024.00;;;;;;5080166;28;20028;-80
2021/05/30 11:35:56;;;;;;;1.70;1.40;;;666.30;1024.00;;;;;;5092793;28;20028;-80
2021/05/30 11:38:48;;;;;;;4.53;2.67;;;665.80;1049.60;;;;;;5078894;28;20032;-80
2021/05/30 11:41:31;;;;;;;2.55;1.95;;;640.50;1049.60;;;;;;5092942;28;20024;-80
2021/05/30 11:44:03;;;;;;;3.17;2.00;;;640.00;1075.20;;;;;;5080260;28;20031;-80
2021/05/30 11:46:31;;;;;;;2.33;1.52;;;640.00;1075.20;;;;;;5079159;28;20089;-80
2021/05/30 11:48:59;;;;;;;3.35;1.42;;;615.30;1075.20;;;;;;5085854;28;20082;-81
2021/05/30 11:51:40;;;;;;;3.20;2.05;;;614.80;1126.40;;;;;;5072862;28;20546;-81
2021/05/30 11:54:06;;;;;;;3.47;2.05;;;614.50;1152.00;;;;;;5079620;28;20028;-80
2021/05/30 11:56:40;;;;;;;4.70;1.92;;;589.60;1177.60;;;;;;5092523;28;20077;-80
2021/05/30 11:59:06;;;;;;;2.08;1.70;;;589.40;1177.60;;;;;;5081231;28;20434;-80
2021/05/30 12:01:45;;;;;;;2.20;1.65;;;589.40;1152.00;;;;;;5084607;28;20028;-80
2021/05/30 12:04:39;;;;;;;3.15;1.65;;;615.00;1126.40;;;;;;5091369;28;20032;-79
2021/05/30 12:07:09;;;;;;;5.80;2.17;;;666.10;1049.60;;;;;;5087030;28;20044;-79
2021/05/30 12:09:52;;;;;;;2.85;1.92;;;717.10;972.80;;;;;;5094930;28;20024;-80
2021/05/30 12:12:33;;;;;;;3.13;1.92;;;768.40;896.00;;;;;;5093591;28;20024;-80
2021/05/30 12:15:02;;;;;;;2.72;2.10;;;743.30;921.60;;;;;;5072171;28;20024;-80
2021/05/30 12:17:28;;;;;;;1.65;1.30;;;743.20;921.60;;;;;;5086499;28;20028;-80
2021/05/30 12:19:54;;;;;;;6.68;1.77;;;717.70;947.20;;;;;;5092293;28;20024;-80
2021/05/30 12:22:25;;;;;;;3.00;1.60;;;716.80;972.80;;;;;;5090868;28;20611;-82
2021/05/30 12:24:52;;;;;;;4.65;1.95;;;691.50;972.80;;;;;;5091410;28;20480;-80
2021/05/30 12:27:18;;;;;;;3.80;1.70;;;691.70;998.40;;;;;;5091051;28;20031;-81